Time;durP1;ratioP1;P1;durP2;ratioP2;P2;SDS_P1;SDS_P2;PMS_P1;PMS_P2;Temp;Humidity;BMP_temperature;BMP_pressure;BME280_temperature;BME280_humidity;BME280_pressure;Samples;Min_cycle;Max_cycle;Signal;HPM_P1;HPM_P2
2020/12/12 00:01:49;;;;;;;81.97;34.35;;;4.00;99.90;;;;;;4161967;28;20455;-79
2020/12/12 00:03:50;;;;;;;85.90;34.45;;;4.00;99.90;;;;;;4161201;28;20039;-80
2020/12/12 00:05:51;;;;;;;80.22;33.50;;;4.00;99.90;;;;;;4161118;28;20476;-81
2020/12/12 00:07:51;;;;;;;78.60;32.58;;;4.00;99.90;;;;;;4160073;28;20030;-81
2020/12/12 00:09:52;;;;;;;90.05;36.53;;;4.10;99.90;;;;;;4161335;28;20040;-79
2020/12/12 00:11:53;;;;;;;79.85;32.92;;;4.10;99.90;;;;;;4160384;28;20041;-80
2020/12/12 00:13:54;;;;;;;82.00;33.22;;;4.10;99.90;;;;;;4161555;28;20124;-80
2020/12/12 00:15:54;;;;;;;83.65;34.20;;;4.10;99.90;;;;;;4159901;28;20026;-81
2020/12/12 00:17:55;;;;;;;84.38;36.47;;;4.10;99.90;;;;;;4159492;28;20029;-79
2020/12/12 00:19:55;;;;;;;86.22;35.83;;;4.00;99.90;;;;;;4159525;28;20029;-80
2020/12/12 00:21:56;;;;;;;77.25;33.08;;;4.10;99.90;;;;;;4177827;28;20037;-80
2020/12/12 00:23:56;;;;;;;83.05;33.55;;;4.10;99.90;;;;;;4161314;28;20036;-80
2020/12/12 00:25:57;;;;;;;85.07;34.05;;;4.10;99.90;;;;;;4161957;28;20082;-80
2020/12/12 00:27:59;;;;;;;82.38;33.80;;;4.10;99.90;;;;;;4162746;28;20029;-80
2020/12/12 00:29:59;;;;;;;78.22;32.50;;;4.10;99.90;;;;;;4159748;28;20033;-80
2020/12/12 00:32:00;;;;;;;79.43;35.72;;;4.10;99.90;;;;;;4161229;28;20365;-79
2020/12/12 00:34:01;;;;;;;79.15;34.28;;;4.10;99.90;;;;;;4160929;28;20409;-81
2020/12/12 00:36:01;;;;;;;83.40;34.92;;;4.10;99.90;;;;;;4161873;28;20108;-80
2020/12/12 00:38:02;;;;;;;83.68;34.65;;;4.10;99.90;;;;;;4160774;28;20042;-80
2020/12/12 00:40:03;;;;;;;83.78;35.63;;;4.10;99.90;;;;;;4161471;28;20034;-80
2020/12/12 00:42:06;;;;;;;81.50;34.88;;;4.10;99.90;;;;;;4161193;28;20037;-80
2020/12/12 00:44:07;;;;;;;86.65;34.70;;;4.10;99.90;;;;;;4161296;28;20022;-81
2020/12/12 00:46:07;;;;;;;86.80;34.90;;;4.10;99.90;;;;;;4162490;28;20025;-80
2020/12/12 00:48:08;;;;;;;79.43;35.10;;;4.10;99.90;;;;;;4162647;28;20030;-80
2020/12/12 00:50:09;;;;;;;87.35;34.67;;;4.10;99.90;;;;;;4160213;28;20109;-80
2020/12/12 00:52:09;;;;;;;89.60;35.63;;;4.10;99.90;;;;;;4177803;28;20036;-81
2020/12/12 00:54:10;;;;;;;84.95;35.03;;;4.10;99.90;;;;;;4160674;28;20083;-80
2020/12/12 00:56:13;;;;;;;89.00;36.63;;;4.10;99.90;;;;;;4177578;28;20021;-79
2020/12/12 00:58:13;;;;;;;99.13;37.22;;;4.10;99.90;;;;;;4161194;28;20103;-79
2020/12/12 01:00:14;;;;;;;97.53;36.90;;;4.20;99.90;;;;;;4162910;28;20021;-80
2020/12/12 01:02:15;;;;;;;82.18;36.33;;;4.20;99.90;;;;;;4161281;28;20157;-81
2020/12/12 01:04:16;;;;;;;91.05;35.05;;;4.10;99.90;;;;;;4161042;28;20049;-80
2020/12/12 01:06:18;;;;;;;97.15;39.55;;;4.10;99.90;;;;;;4162786;28;20033;-80
2020/12/12 01:08:18;;;;;;;101.18;37.47;;;4.10;99.90;;;;;;4160909;28;20029;-80
2020/12/12 01:10:19;;;;;;;100.70;37.17;;;4.20;99.90;;;;;;4161309;28;20389;-80
2020/12/12 01:12:20;;;;;;;105.60;38.70;;;4.10;99.90;;;;;;4161366;28;20045;-80
2020/12/12 01:14:20;;;;;;;96.70;37.25;;;4.10;99.90;;;;;;4160789;28;20061;-80
2020/12/12 01:16:21;;;;;;;99.93;36.58;;;4.10;99.90;;;;;;4162314;28;20133;-80
2020/12/12 01:18:21;;;;;;;97.82;37.05;;;4.10;99.90;;;;;;4162357;28;20030;-79
2020/12/12 01:20:22;;;;;;;102.18;36.72;;;4.10;99.90;;;;;;4162517;28;20492;-80
2020/12/12 01:22:23;;;;;;;114.03;36.95;;;4.10;99.90;;;;;;4162131;28;20032;-80
2020/12/12 01:24:23;;;;;;;99.80;38.65;;;4.20;99.90;;;;;;4161117;28;20055;-80
2020/12/12 01:26:24;;;;;;;114.40;37.42;;;4.20;99.90;;;;;;4162490;28;20036;-81
2020/12/12 01:28:25;;;;;;;104.75;39.10;;;4.20;99.90;;;;;;4161422;28;20409;-81
2020/12/12 01:30:25;;;;;;;122.07;39.63;;;4.10;99.90;;;;;;4161696;28;20173;-80
2020/12/12 01:32:26;;;;;;;124.68;40.20;;;4.10;99.90;;;;;;4163749;28;20096;-80
2020/12/12 01:34:27;;;;;;;96.20;35.60;;;4.20;99.90;;;;;;4164362;28;20412;-82
2020/12/12 01:36:27;;;;;;;117.03;37.75;;;4.20;99.90;;;;;;4165451;28;20022;-81
2020/12/12 01:38:28;;;;;;;111.97;38.97;;;4.20;99.90;;;;;;4164443;28;20026;-82
2020/12/12 01:40:28;;;;;;;104.95;38.33;;;4.20;99.90;;;;;;4163811;28;20030;-82
2020/12/12 01:42:32;;;;;;;116.70;39.70;;;4.20;99.90;;;;;;4165141;28;20029;-83
2020/12/12 01:44:33;;;;;;;112.88;38.38;;;4.10;99.90;;;;;;4164349;28;20061;-82
2020/12/12 01:46:34;;;;;;;100.57;38.72;;;4.20;99.90;;;;;;4164061;28;20485;-82
2020/12/12 01:48:35;;;;;;;100.45;38.20;;;4.20;99.90;;;;;;4165612;28;20105;-82
2020/12/12 01:50:36;;;;;;;106.00;39.88;;;4.20;99.90;;;;;;4163687;28;20033;-82
2020/12/12 01:52:37;;;;;;;101.57;37.50;;;4.20;99.90;;;;;;4162645;28;20053;-82
2020/12/12 01:54:38;;;;;;;115.65;38.85;;;4.20;99.90;;;;;;4163710;28;20109;-83
2020/12/12 01:56:39;;;;;;;106.13;37.47;;;4.20;99.90;;;;;;4162509;28;20520;-82
2020/12/12 01:58:39;;;;;;;95.82;37.40;;;4.20;99.90;;;;;;4163290;28;20030;-82
2020/12/12 02:00:40;;;;;;;111.57;38.90;;;4.20;99.90;;;;;;4161916;28;20026;-82
2020/12/12 02:02:46;;;;;;;115.85;38.75;;;4.20;99.90;;;;;;4170977;28;20052;-82
2020/12/12 02:04:55;;;;;;;102.85;37.03;;;4.20;99.90;;;;;;4180287;28;20384;-83
2020/12/12 02:06:55;;;;;;;108.22;38.10;;;4.20;99.90;;;;;;4180133;28;20090;-83
2020/12/12 02:08:57;;;;;;;101.63;37.53;;;4.20;99.90;;;;;;4162260;28;20033;-82
2020/12/12 02:11:02;;;;;;;119.07;38.55;;;4.20;99.90;;;;;;4162188;28;20028;-83
2020/12/12 02:13:06;;;;;;;112.90;38.63;;;4.20;99.90;;;;;;4179953;28;20017;-82
2020/12/12 02:15:07;;;;;;;117.28;40.03;;;4.20;99.90;;;;;;4166297;28;20493;-82
2020/12/12 02:17:09;;;;;;;111.60;39.83;;;4.20;99.90;;;;;;4180071;28;20047;-83
2020/12/12 02:19:14;;;;;;;113.57;38.35;;;4.20;99.90;;;;;;4163357;28;20104;-82
2020/12/12 02:21:15;;;;;;;113.93;38.15;;;4.20;99.90;;;;;;4179630;28;20029;-82
2020/12/12 02:23:17;;;;;;;100.80;38.00;;;4.20;99.90;;;;;;4181571;28;20029;-82
2020/12/12 02:25:18;;;;;;;114.43;40.78;;;4.20;99.90;;;;;;4180923;28;20487;-82
2020/12/12 02:27:21;;;;;;;110.72;39.97;;;4.20;99.90;;;;;;4163978;28;20029;-83
2020/12/12 02:29:21;;;;;;;117.05;37.47;;;4.30;99.90;;;;;;4179145;28;20492;-82
2020/12/12 02:31:26;;;;;;;100.85;36.90;;;4.20;99.90;;;;;;4162030;28;20133;-81
2020/12/12 02:33:26;;;;;;;112.45;37.75;;;4.20;99.90;;;;;;4163302;28;20036;-82
2020/12/12 02:35:27;;;;;;;122.63;40.15;;;4.30;99.90;;;;;;4181042;28;20041;-82
2020/12/12 02:37:28;;;;;;;110.57;38.63;;;4.30;99.90;;;;;;4180933;28;20025;-81
2020/12/12 02:39:29;;;;;;;118.13;38.75;;;4.20;99.90;;;;;;4163111;28;20026;-84
2020/12/12 02:41:29;;;;;;;106.68;38.63;;;4.20;99.90;;;;;;4162967;28;20380;-83
2020/12/12 02:43:30;;;;;;;105.55;39.33;;;4.20;99.90;;;;;;4163261;28;20493;-83
2020/12/12 02:45:30;;;;;;;113.95;40.00;;;4.30;99.90;;;;;;4163213;28;20033;-83
2020/12/12 02:47:35;;;;;;;112.43;38.45;;;4.30;99.90;;;;;;4163046;28;20030;-83
2020/12/12 02:49:35;;;;;;;117.47;40.22;;;4.30;99.90;;;;;;4163016;28;20036;-83
2020/12/12 02:51:42;;;;;;;109.72;39.83;;;4.20;99.90;;;;;;4163172;28;20053;-81
2020/12/12 02:53:47;;;;;;;132.68;39.83;;;4.30;99.90;;;;;;4180863;28;20051;-83
2020/12/12 02:55:49;;;;;;;96.20;37.25;;;4.30;99.90;;;;;;4180405;28;20040;-83
2020/12/12 02:57:49;;;;;;;107.85;38.80;;;4.30;99.90;;;;;;4162671;28;20025;-83
2020/12/12 02:59:50;;;;;;;113.00;39.88;;;4.30;99.90;;;;;;4163021;28;20041;-83
2020/12/12 03:01:51;;;;;;;99.70;38.20;;;4.30;99.90;;;;;;4180240;28;20033;-82
2020/12/12 03:03:52;;;;;;;109.30;39.38;;;4.30;99.90;;;;;;4163368;28;20083;-82
2020/12/12 03:05:52;;;;;;;123.38;38.80;;;4.30;99.90;;;;;;4163027;28;20029;-83
2020/12/12 03:07:53;;;;;;;122.82;39.88;;;4.30;99.90;;;;;;4179241;28;20037;-84
2020/12/12 03:09:53;;;;;;;109.25;36.65;;;4.30;99.90;;;;;;4163038;28;20025;-84
2020/12/12 03:11:54;;;;;;;105.25;39.42;;;4.30;99.90;;;;;;4163059;28;20030;-85
2020/12/12 03:13:55;;;;;;;130.63;38.90;;;4.30;99.90;;;;;;4163357;28;20033;-84
2020/12/12 03:15:56;;;;;;;119.93;39.05;;;4.30;99.90;;;;;;4162734;28;20025;-85
2020/12/12 03:17:56;;;;;;;119.18;39.40;;;4.30;99.90;;;;;;4163171;28;20076;-86
2020/12/12 03:19:57;;;;;;;127.32;40.63;;;4.30;99.90;;;;;;4162868;28;20049;-86
2020/12/12 03:21:58;;;;;;;112.35;38.85;;;4.30;99.90;;;;;;4163316;28;20030;-85
2020/12/12 03:23:58;;;;;;;117.88;39.05;;;4.40;99.90;;;;;;4162457;28;20033;-85
2020/12/12 03:25:59;;;;;;;115.07;37.83;;;4.30;99.90;;;;;;4180028;28;20441;-85
2020/12/12 03:28:00;;;;;;;122.00;39.03;;;4.40;99.90;;;;;;4180592;28;20108;-85
2020/12/12 03:30:01;;;;;;;111.30;38.20;;;4.40;99.90;;;;;;4181052;28;20021;-86
2020/12/12 03:32:01;;;;;;;119.43;38.67;;;4.30;99.90;;;;;;4162545;28;20029;-87
2020/12/12 03:34:02;;;;;;;112.97;38.63;;;4.40;99.90;;;;;;4163864;28;20022;-85
2020/12/12 03:36:03;;;;;;;113.50;41.25;;;4.30;99.90;;;;;;4161985;28;20112;-85
2020/12/12 03:38:04;;;;;;;121.22;38.92;;;4.40;99.90;;;;;;4162650;28;20040;-85
2020/12/12 03:40:05;;;;;;;116.20;39.72;;;4.40;99.90;;;;;;4164521;28;20043;-86
2020/12/12 03:42:06;;;;;;;117.03;40.28;;;4.40;99.90;;;;;;4162881;28;20391;-85
2020/12/12 03:44:07;;;;;;;125.60;39.00;;;4.40;99.90;;;;;;4162217;28;20076;-84
2020/12/12 03:46:07;;;;;;;106.28;38.50;;;4.40;99.90;;;;;;4163810;28;20030;-83
2020/12/12 03:48:08;;;;;;;116.07;40.17;;;4.40;99.90;;;;;;4161917;28;20029;-85
2020/12/12 03:50:09;;;;;;;109.03;40.03;;;4.40;99.90;;;;;;4162715;28;20068;-83
2020/12/12 03:52:10;;;;;;;108.75;38.00;;;4.40;99.90;;;;;;4147924;28;20041;-84
2020/12/12 03:54:11;;;;;;;117.72;38.03;;;4.40;99.90;;;;;;4161876;28;20080;-85
2020/12/12 03:56:14;;;;;;;126.43;39.35;;;4.40;99.90;;;;;;4161186;28;20026;-85
2020/12/12 03:58:15;;;;;;;;;;;4.40;99.90;;;;;;4161053;28;20025;-84
2020/12/12 04:00:16;;;;;;;100.18;35.05;;;4.40;99.90;;;;;;4162161;28;19909;-84
2020/12/12 04:02:16;;;;;;;104.15;36.70;;;4.40;99.90;;;;;;4162261;28;20045;-84
2020/12/12 04:04:17;;;;;;;106.63;38.10;;;4.40;99.90;;;;;;4162355;28;20095;-83
2020/12/12 04:06:18;;;;;;;106.80;38.65;;;4.40;99.90;;;;;;4161835;28;20060;-83
2020/12/12 04:08:18;;;;;;;118.63;39.55;;;4.40;99.90;;;;;;4162729;28;20033;-83
2020/12/12 04:10:19;;;;;;;106.47;37.17;;;4.40;99.90;;;;;;4164596;28;20030;-81
2020/12/12 04:12:20;;;;;;;103.97;36.50;;;4.40;99.90;;;;;;4152299;28;20034;-83
2020/12/12 04:14:21;;;;;;;92.20;35.15;;;4.40;99.90;;;;;;4163200;28;20036;-84
2020/12/12 04:16:22;;;;;;;100.22;36.35;;;4.40;99.90;;;;;;4161899;28;20037;-85
2020/12/12 04:18:23;;;;;;;100.05;37.75;;;4.40;99.90;;;;;;4162253;28;20056;-84
2020/12/12 04:20:24;;;;;;;96.90;37.60;;;4.40;99.90;;;;;;4162812;28;20025;-84
2020/12/12 04:22:24;;;;;;;100.30;36.85;;;4.50;99.90;;;;;;4162057;28;20121;-83
2020/12/12 04:24:25;;;;;;;93.82;35.42;;;4.50;99.90;;;;;;4162361;28;20392;-84
2020/12/12 04:26:25;;;;;;;97.72;35.35;;;4.50;99.90;;;;;;4161733;28;20061;-85
2020/12/12 04:28:32;;;;;;;94.65;34.15;;;4.50;99.90;;;;;;4161657;28;20040;-83
2020/12/12 04:30:33;;;;;;;97.50;35.65;;;4.40;99.90;;;;;;4162782;28;20393;-83
2020/12/12 04:32:33;;;;;;;96.53;35.28;;;4.50;99.90;;;;;;4160209;28;20033;-84
2020/12/12 04:34:34;;;;;;;91.63;35.10;;;4.50;99.90;;;;;;4161685;28;20033;-84
2020/12/12 04:36:34;;;;;;;113.55;37.03;;;4.50;99.90;;;;;;4161579;28;20116;-84
2020/12/12 04:38:36;;;;;;;82.90;33.15;;;4.50;99.90;;;;;;4161651;28;20029;-83
2020/12/12 04:40:37;;;;;;;97.15;34.20;;;4.50;99.90;;;;;;4162160;28;20036;-84
2020/12/12 04:42:42;;;;;;;90.32;36.28;;;4.50;99.90;;;;;;4161100;28;20085;-84
2020/12/12 04:44:43;;;;;;;100.07;35.15;;;4.50;99.90;;;;;;4161738;28;20386;-84
2020/12/12 04:46:45;;;;;;;92.40;35.03;;;4.50;99.90;;;;;;4162163;28;20091;-84
2020/12/12 04:48:46;;;;;;;101.32;36.53;;;4.50;99.90;;;;;;4161553;28;20155;-83
2020/12/12 04:50:47;;;;;;;101.20;34.22;;;4.50;99.90;;;;;;4162040;28;20095;-83
2020/12/12 04:52:49;;;;;;;115.07;36.25;;;4.60;99.90;;;;;;4161425;28;20583;-83
2020/12/12 04:54:51;;;;;;;111.78;37.22;;;4.60;99.90;;;;;;4161953;28;20384;-82
2020/12/12 04:56:58;;;;;;;106.63;36.05;;;4.60;99.90;;;;;;4161561;28;20083;-82
2020/12/12 04:58:59;;;;;;;102.45;34.53;;;4.60;99.90;;;;;;4161540;28;20030;-82
2020/12/12 05:01:00;;;;;;;106.97;33.92;;;4.60;99.90;;;;;;4162848;28;20491;-83
2020/12/12 05:03:01;;;;;;;122.15;38.78;;;4.60;99.90;;;;;;4161271;28;20065;-83
2020/12/12 05:05:06;;;;;;;117.75;37.20;;;4.60;99.90;;;;;;4162892;28;20037;-84
2020/12/12 05:07:08;;;;;;;120.63;39.60;;;4.60;99.90;;;;;;4164651;28;20033;-83
2020/12/12 05:09:09;;;;;;;131.52;39.22;;;4.60;99.90;;;;;;4164575;28;20022;-84
2020/12/12 05:11:09;;;;;;;115.20;39.08;;;4.60;99.90;;;;;;4164380;28;20123;-82
2020/12/12 05:13:25;;;;;;;122.72;38.90;;;4.60;99.90;;;;;;4164680;28;20052;-83
2020/12/12 05:15:26;;;;;;;127.43;42.42;;;4.60;99.90;;;;;;4165856;28;20381;-83
2020/12/12 05:17:27;;;;;;;147.07;44.30;;;4.60;99.90;;;;;;4164569;28;20029;-83
2020/12/12 05:19:28;;;;;;;136.35;41.92;;;4.60;99.90;;;;;;4164650;28;20439;-83
2020/12/12 05:21:28;;;;;;;113.25;36.95;;;4.60;99.90;;;;;;4165144;28;20412;-83
2020/12/12 05:23:29;;;;;;;124.25;39.88;;;4.60;99.90;;;;;;4164728;28;20123;-83
2020/12/12 05:25:30;;;;;;;131.20;40.10;;;4.70;99.90;;;;;;4165839;28;20025;-83
2020/12/12 05:27:31;;;;;;;115.32;38.58;;;4.70;99.90;;;;;;4164707;28;20029;-82
2020/12/12 05:29:32;;;;;;;122.72;40.97;;;4.70;99.90;;;;;;4165021;28;20021;-83
2020/12/12 05:31:34;;;;;;;130.25;43.00;;;4.70;99.90;;;;;;4166300;28;20037;-84
2020/12/12 05:33:35;;;;;;;125.43;41.50;;;4.70;99.90;;;;;;4164352;28;20112;-84
2020/12/12 05:35:36;;;;;;;125.40;41.20;;;4.70;99.90;;;;;;4164128;28;20038;-83
2020/12/12 05:37:38;;;;;;;131.77;42.22;;;4.70;99.90;;;;;;4164215;28;20488;-83
2020/12/12 05:39:39;;;;;;;133.30;41.55;;;4.70;99.90;;;;;;4164896;28;20030;-84
2020/12/12 05:41:42;;;;;;;122.22;40.55;;;4.70;99.90;;;;;;4166284;28;20546;-84
2020/12/12 05:43:42;;;;;;;127.27;41.20;;;4.70;99.90;;;;;;4164997;28;20556;-85
2020/12/12 05:45:43;;;;;;;133.55;41.95;;;4.70;99.90;;;;;;4163786;28;20067;-84
2020/12/12 05:47:44;;;;;;;131.40;41.45;;;4.70;99.90;;;;;;4164238;28;20108;-83
2020/12/12 05:49:48;;;;;;;123.55;41.40;;;4.70;99.90;;;;;;4164311;28;20030;-83
2020/12/12 05:51:52;;;;;;;122.32;40.50;;;4.70;99.90;;;;;;4165500;28;20381;-83
2020/12/12 05:53:53;;;;;;;126.38;41.40;;;4.70;99.90;;;;;;4164188;28;20492;-82
2020/12/12 05:55:55;;;;;;;130.13;41.47;;;4.70;99.90;;;;;;4163261;28;20028;-82
2020/12/12 05:57:57;;;;;;;130.30;41.45;;;4.80;99.90;;;;;;4165242;28;20076;-83
2020/12/12 05:59:58;;;;;;;146.18;42.58;;;4.80;99.90;;;;;;4164546;28;20124;-83
2020/12/12 06:02:04;;;;;;;128.70;39.17;;;4.80;99.90;;;;;;4163142;28;20029;-83
2020/12/12 06:04:09;;;;;;;142.35;41.95;;;4.80;99.90;;;;;;4173466;28;20036;-82
2020/12/12 06:06:13;;;;;;;125.10;41.67;;;4.80;99.90;;;;;;4163009;28;20113;-84
2020/12/12 06:08:32;;;;;;;122.55;39.45;;;4.80;99.90;;;;;;4181398;28;20025;-84
2020/12/12 06:10:34;;;;;;;127.65;40.17;;;4.80;99.90;;;;;;4180173;28;20044;-84
2020/12/12 06:12:35;;;;;;;130.00;41.23;;;4.80;99.90;;;;;;4163640;28;20029;-84
2020/12/12 06:14:37;;;;;;;129.98;41.90;;;4.80;99.90;;;;;;4161106;28;20100;-84
2020/12/12 06:16:38;;;;;;;135.68;42.10;;;4.80;99.90;;;;;;4179883;28;20075;-85
2020/12/12 06:19:02;;;;;;;116.97;39.70;;;4.80;99.90;;;;;;4178501;28;20044;-84
2020/12/12 06:21:07;;;;;;;134.75;42.22;;;4.80;99.90;;;;;;4160458;28;20053;-84
2020/12/12 06:23:08;;;;;;;114.60;38.08;;;4.80;99.90;;;;;;4163050;28;20330;-84
2020/12/12 06:25:14;;;;;;;133.82;41.20;;;4.80;99.90;;;;;;4163172;28;20037;-84
2020/12/12 06:27:17;;;;;;;116.20;38.63;;;4.80;99.90;;;;;;4163174;28;20041;-84
2020/12/12 06:29:19;;;;;;;121.05;40.00;;;4.80;99.90;;;;;;4163174;28;20034;-86
2020/12/12 06:31:21;;;;;;;128.55;41.10;;;4.80;99.90;;;;;;4160471;28;20167;-84
2020/12/12 06:33:22;;;;;;;118.82;39.90;;;4.80;99.90;;;;;;4170237;28;20068;-83
2020/12/12 06:35:36;;;;;;;113.22;37.72;;;4.80;99.90;;;;;;4163849;28;20036;-84
2020/12/12 06:37:38;;;;;;;118.68;39.28;;;4.80;99.90;;;;;;4161990;28;20025;-83
2020/12/12 06:39:45;;;;;;;111.45;40.58;;;4.80;99.90;;;;;;4161716;28;20117;-84
2020/12/12 06:41:56;;;;;;;119.65;37.20;;;4.90;99.90;;;;;;4162752;28;20032;-84
2020/12/12 06:43:57;;;;;;;127.88;38.50;;;4.90;99.90;;;;;;4179573;28;20039;-84
2020/12/12 06:46:00;;;;;;;130.05;38.80;;;4.90;99.90;;;;;;4163341;28;20086;-83
2020/12/12 06:48:00;;;;;;;123.35;38.60;;;4.90;99.90;;;;;;4162832;28;20491;-85
2020/12/12 06:50:05;;;;;;;149.13;41.67;;;4.90;99.90;;;;;;4145114;28;20014;-84
2020/12/12 06:52:06;;;;;;;137.50;39.25;;;4.90;99.90;;;;;;4162252;28;20091;-82
2020/12/12 06:54:09;;;;;;;130.05;38.80;;;4.90;99.90;;;;;;4170295;28;20224;-82
2020/12/12 06:56:17;;;;;;;;;;;4.90;99.90;;;;;;4158295;28;20030;-83
2020/12/12 06:58:24;;;;;;;135.18;37.75;;;4.90;99.90;;;;;;4143211;28;19909;-83
2020/12/12 07:00:34;;;;;;;124.88;37.65;;;4.90;99.90;;;;;;4145005;28;20037;-82
2020/12/12 07:02:35;;;;;;;126.43;38.38;;;4.90;99.90;;;;;;4138983;28;20132;-83
2020/12/12 07:04:37;;;;;;;127.70;37.65;;;4.90;99.90;;;;;;4151479;28;20025;-83
2020/12/12 07:06:38;;;;;;;142.13;40.28;;;5.00;99.90;;;;;;4168193;28;20040;-84
2020/12/12 07:08:41;;;;;;;145.30;40.50;;;5.00;99.90;;;;;;4153663;28;20095;-83
2020/12/12 07:10:43;;;;;;;174.40;43.65;;;5.00;99.90;;;;;;4146370;28;20057;-85
2020/12/12 07:12:45;;;;;;;144.68;39.45;;;5.00;99.90;;;;;;4147167;28;20056;-85
2020/12/12 07:14:46;;;;;;;167.55;41.05;;;5.00;99.90;;;;;;4152322;28;20032;-83
2020/12/12 07:16:50;;;;;;;182.95;44.75;;;4.90;99.90;;;;;;4148074;28;20096;-83
2020/12/12 07:18:51;;;;;;;202.73;46.45;;;5.00;99.90;;;;;;4152459;28;20081;-82
2020/12/12 07:21:00;;;;;;;211.35;48.35;;;5.00;99.90;;;;;;4161417;28;20377;-84
2020/12/12 07:23:02;;;;;;;227.77;48.63;;;5.00;99.90;;;;;;4150432;28;20501;-84
2020/12/12 07:25:05;;;;;;;208.75;49.13;;;5.00;99.90;;;;;;4147833;28;20457;-82
2020/12/12 07:27:09;;;;;;;224.88;47.00;;;5.00;99.90;;;;;;4161006;28;20022;-82
2020/12/12 07:29:10;;;;;;;217.27;47.03;;;5.00;99.90;;;;;;4153558;28;20029;-82
2020/12/12 07:31:11;;;;;;;261.75;51.05;;;5.00;99.90;;;;;;4148015;28;20388;-83
2020/12/12 07:33:12;;;;;;;271.02;50.67;;;5.00;99.90;;;;;;4151251;28;20022;-82
2020/12/12 07:35:13;;;;;;;289.20;54.03;;;5.00;99.90;;;;;;4166221;28;20041;-82
2020/12/12 07:37:13;;;;;;;240.80;48.63;;;5.00;99.90;;;;;;4157709;28;20502;-83
2020/12/12 07:39:14;;;;;;;261.48;50.90;;;5.00;99.90;;;;;;4159690;28;20045;-82
2020/12/12 07:41:17;;;;;;;311.40;54.13;;;5.00;99.90;;;;;;4176795;28;20074;-82
2020/12/12 07:43:21;;;;;;;;;;;5.00;99.90;;;;;;4162645;28;20030;-82
2020/12/12 07:47:23;;;;;;;327.75;56.28;;;5.00;99.90;;;;;;4180323;28;20111;-81
2020/12/12 07:49:23;;;;;;;341.77;57.75;;;5.00;99.90;;;;;;4162210;28;20034;-82
2020/12/12 07:51:27;;;;;;;360.65;57.92;;;5.10;99.90;;;;;;4161577;28;20117;-82
2020/12/12 07:53:28;;;;;;;341.50;56.67;;;5.10;99.90;;;;;;4174857;28;20384;-82
2020/12/12 07:55:30;;;;;;;358.50;58.67;;;5.10;99.90;;;;;;4165207;28;20036;-82
2020/12/12 07:57:33;;;;;;;268.15;50.30;;;5.10;99.90;;;;;;4159130;28;20473;-83
2020/12/12 07:59:34;;;;;;;281.58;54.53;;;5.10;99.90;;;;;;4172527;28;20041;-81
2020/12/12 08:01:37;;;;;;;355.30;57.45;;;5.10;99.90;;;;;;4163540;28;20029;-80
2020/12/12 08:03:46;;;;;;;354.90;56.75;;;5.10;99.90;;;;;;4177569;28;20036;-81
2020/12/12 08:05:46;;;;;;;354.13;56.35;;;5.10;99.90;;;;;;4174151;28;20092;-82
2020/12/12 08:07:48;;;;;;;269.20;49.88;;;5.20;99.90;;;;;;4172515;28;20451;-82
2020/12/12 08:09:52;;;;;;;279.75;50.47;;;5.20;99.90;;;;;;4175442;28;20028;-81
2020/12/12 08:12:01;;;;;;;278.83;50.40;;;5.20;99.90;;;;;;4162497;28;20037;-80
2020/12/12 08:14:03;;;;;;;307.38;50.25;;;5.20;99.90;;;;;;4180008;28;20030;-81
2020/12/12 08:16:11;;;;;;;341.52;56.25;;;5.20;99.90;;;;;;4152912;28;20050;-83
2020/12/12 08:18:13;;;;;;;325.80;55.38;;;5.30;99.90;;;;;;4176194;28;20017;-82
2020/12/12 08:20:24;;;;;;;286.55;53.50;;;5.30;99.90;;;;;;4156181;28;20497;-79
2020/12/12 08:22:25;;;;;;;373.95;60.03;;;5.30;99.90;;;;;;4163277;28;20030;-81
2020/12/12 08:24:26;;;;;;;299.88;53.50;;;5.30;99.90;;;;;;4178258;28;20029;-82
2020/12/12 08:26:27;;;;;;;354.42;58.75;;;5.30;99.90;;;;;;4161775;28;20374;-79
2020/12/12 08:28:29;;;;;;;321.20;57.88;;;5.30;99.90;;;;;;4160967;28;20095;-80
2020/12/12 08:30:29;;;;;;;297.65;55.42;;;5.30;99.90;;;;;;4177931;28;20036;-85
2020/12/12 08:32:32;;;;;;;355.05;58.83;;;5.40;99.90;;;;;;4179645;28;20112;-88
2020/12/12 08:34:33;;;;;;;305.52;57.35;;;5.40;99.90;;;;;;4157105;28;20057;-85
2020/12/12 08:36:35;;;;;;;277.08;53.38;;;5.40;99.90;;;;;;4160947;28;20159;-82
2020/12/12 08:38:37;;;;;;;358.10;59.13;;;5.40;99.90;;;;;;4157397;28;20053;-83
2020/12/12 08:40:46;;;;;;;308.77;55.20;;;5.40;99.90;;;;;;4178611;28;20075;-81
2020/12/12 08:43:05;;;;;;;295.98;55.25;;;5.40;99.90;;;;;;4162082;28;20428;-81
2020/12/12 08:45:18;;;;;;;326.60;56.90;;;5.40;99.90;;;;;;4179751;28;20029;-82
2020/12/12 08:47:18;;;;;;;351.67;59.78;;;5.40;99.90;;;;;;4161811;28;20025;-83
2020/12/12 08:49:20;;;;;;;331.27;58.40;;;5.50;99.90;;;;;;4171773;28;20025;-84
2020/12/12 08:51:29;;;;;;;330.70;61.20;;;5.50;99.90;;;;;;4157416;28;20493;-83
2020/12/12 08:53:34;;;;;;;259.17;51.70;;;5.50;99.90;;;;;;4162958;28;20026;-85
2020/12/12 08:55:35;;;;;;;357.42;63.58;;;5.50;99.90;;;;;;4161843;28;20029;-83
2020/12/12 08:57:35;;;;;;;273.42;51.85;;;5.50;99.90;;;;;;4161200;28;20104;-81
2020/12/12 08:59:36;;;;;;;294.17;56.30;;;5.60;99.90;;;;;;4154796;28;20045;-82
2020/12/12 09:01:43;;;;;;;210.07;45.47;;;5.60;99.90;;;;;;4161610;28;20026;-82
2020/12/12 09:04:20;;;;;;;238.13;47.65;;;5.60;99.90;;;;;;4151516;28;20531;-82
2020/12/12 09:06:21;;;;;;;255.57;51.08;;;5.60;99.90;;;;;;4157571;28;20041;-82
2020/12/12 09:08:22;;;;;;;258.70;50.67;;;5.70;99.90;;;;;;4154220;28;20120;-83
2020/12/12 09:10:22;;;;;;;325.48;55.75;;;5.70;99.90;;;;;;4161961;28;20026;-83
2020/12/12 09:12:23;;;;;;;332.17;57.97;;;5.70;99.90;;;;;;4161377;28;20059;-83
2020/12/12 09:14:26;;;;;;;269.13;51.25;;;5.70;99.90;;;;;;4162356;28;20120;-83
2020/12/12 09:16:27;;;;;;;307.85;54.00;;;5.80;99.90;;;;;;4163023;28;20053;-84
2020/12/12 09:18:28;;;;;;;293.20;52.70;;;5.80;99.90;;;;;;4155231;28;20079;-87
2020/12/12 09:20:29;;;;;;;264.92;51.22;;;5.80;99.90;;;;;;4161550;28;20025;-84
2020/12/12 09:22:29;;;;;;;297.38;53.47;;;5.80;99.90;;;;;;4160978;28;20040;-84
2020/12/12 09:24:30;;;;;;;299.08;58.67;;;5.90;99.90;;;;;;4161194;28;20025;-83
2020/12/12 09:26:31;;;;;;;269.33;52.05;;;5.90;99.90;;;;;;4158933;28;20068;-84
2020/12/12 09:28:32;;;;;;;287.08;54.30;;;5.90;99.90;;;;;;4162069;28;20034;-82
2020/12/12 09:30:33;;;;;;;272.52;52.05;;;6.00;99.90;;;;;;4160373;28;20071;-83
2020/12/12 09:32:35;;;;;;;319.02;56.78;;;6.00;99.90;;;;;;4161151;28;20061;-85
2020/12/12 09:34:37;;;;;;;322.80;54.38;;;6.00;99.90;;;;;;4161740;28;20022;-84
2020/12/12 09:36:37;;;;;;;269.33;53.08;;;6.10;99.90;;;;;;4162339;28;20045;-84
2020/12/12 09:38:38;;;;;;;231.50;46.95;;;6.10;99.90;;;;;;4162763;28;20029;-85
2020/12/12 09:40:39;;;;;;;303.30;56.47;;;6.10;99.90;;;;;;4156794;28;20405;-83
2020/12/12 09:42:40;;;;;;;319.25;56.95;;;6.10;99.90;;;;;;4160611;28;20112;-83
2020/12/12 09:44:40;;;;;;;299.42;53.80;;;6.10;99.90;;;;;;4161810;28;20280;-83
2020/12/12 09:46:41;;;;;;;260.50;52.55;;;6.10;99.90;;;;;;4161801;28;20073;-84
2020/12/12 09:48:42;;;;;;;298.58;54.63;;;6.10;99.90;;;;;;4152628;28;20034;-83
2020/12/12 09:50:42;;;;;;;309.95;55.20;;;6.20;99.90;;;;;;4160602;28;20025;-84
2020/12/12 09:52:44;;;;;;;232.65;47.55;;;6.20;99.90;;;;;;4164642;28;20072;-84
2020/12/12 09:54:45;;;;;;;250.07;49.00;;;6.10;99.90;;;;;;4165410;28;20480;-82
2020/12/12 09:56:48;;;;;;;281.73;51.35;;;6.10;99.90;;;;;;4163601;28;20026;-85
2020/12/12 09:58:48;;;;;;;258.08;50.63;;;6.10;99.90;;;;;;4163923;28;20077;-84
2020/12/12 10:00:49;;;;;;;230.32;49.22;;;6.10;99.90;;;;;;4165511;28;20473;-82
2020/12/12 10:02:50;;;;;;;257.38;49.08;;;6.10;99.90;;;;;;4163273;28;20026;-85
2020/12/12 10:04:50;;;;;;;258.77;52.05;;;6.20;99.90;;;;;;4163345;28;20068;-82
2020/12/12 10:06:51;;;;;;;298.23;56.55;;;6.20;99.90;;;;;;4164743;28;20116;-87
2020/12/12 10:08:51;;;;;;;232.63;46.67;;;6.20;99.90;;;;;;4162628;28;20112;-84
2020/12/12 10:10:53;;;;;;;235.05;49.08;;;6.20;99.90;;;;;;4160530;28;20034;-83
2020/12/12 10:12:54;;;;;;;238.10;49.42;;;6.20;99.90;;;;;;4163708;28;20045;-84
2020/12/12 10:14:54;;;;;;;243.25;47.47;;;6.20;99.90;;;;;;4162955;28;20032;-83
2020/12/12 10:16:55;;;;;;;296.60;55.22;;;6.20;99.90;;;;;;4161833;28;20124;-84
2020/12/12 10:21:53;;;;;;;262.38;49.05;;;6.30;99.90;;;;;;4174449;28;20506;-84
2020/12/12 10:23:53;;;;;;;251.35;49.38;;;6.40;99.90;;;;;;4166157;28;20154;-84
2020/12/12 10:25:54;;;;;;;244.07;47.17;;;6.40;99.90;;;;;;4167699;28;20033;-83
2020/12/12 10:27:58;;;;;;;243.82;46.83;;;6.50;99.90;;;;;;4167075;28;20065;-85